Fs Philippine — FMDU — position and weather

sailwx.info

Track history (hours):
 
Tides and Currents Weather Stations Pressure Air Temp Water Temp Dewpoint Dewpoint Depression Visibility Wind Speed Wind Dir Waves Ship Positions

Fs Philippine

Last reported at 2014-Sep-16 20:25 UTC. Time now 2014-Sep-16 21:25 UTC.
Position N 35°49' E 014°52'.

Length 139 m; draft 6.4 m.

Type: Ship (hazmat cat B). MMSI: 228320800.

Date/timePositionNaut miles runAvg speedWind from/ knotsBaromVisibWave heightAir tempDewpointWater temp
2014-Sep-16 20:25N 35°49' E 014°52'0 0.0
2014-Sep-16 18:07N 35°49' E 014°52'0 0.0
2014-Sep-16 17:22N 35°49' E 014°52'0 0.0
2014-Sep-16 06:28N 35°49' E 014°52'0 0.0
2014-Sep-16 04:28N 35°49' E 014°52'0 0.0
2014-Sep-16 03:28N 35°49' E 014°52'0 0.1
2014-Sep-16 02:31N 35°49' E 014°52'0 0.0
2014-Sep-16 01:22N 35°49' E 014°52'0 0.0
2014-Sep-15 23:25N 35°49' E 014°52'0 0.0
2014-Sep-15 22:31N 35°49' E 014°52'0 0.0
2014-Sep-15 21:13N 35°49' E 014°52'0 0.0
2014-Sep-15 20:31N 35°49' E 014°52'0 0.0
2014-Sep-15 19:28N 35°49' E 014°52'0 0.0
2014-Sep-15 18:31N 35°49' E 014°52'0 0.0
2014-Sep-15 16:31N 35°49' E 014°52'0 0.0
2014-Sep-15 15:31N 35°49' E 014°52'0 0.0
2014-Sep-15 14:31N 35°49' E 014°52'0 0.0
2014-Sep-15 13:31N 35°49' E 014°52'0 0.0
2014-Sep-15 12:31N 35°49' E 014°52'0 0.0
2014-Sep-15 11:31N 35°49' E 014°52'0 0.1
2014-Sep-15 10:31N 35°49' E 014°52'0 0.1
2014-Sep-15 09:31N 35°49' E 014°52'0 0.0
2014-Sep-15 08:31N 35°49' E 014°52'0 0.0
2014-Sep-15 07:25N 35°49' E 014°52'0 0.0
2014-Sep-15 06:28N 35°49' E 014°52'0 0.0
2014-Sep-15 05:19N 35°49' E 014°52'0 0.0
2014-Sep-15 04:31N 35°49' E 014°52'0 0.0
2014-Sep-15 03:31N 35°49' E 014°52'0 0.0
2014-Sep-15 02:31N 35°49' E 014°52'0 0.0
2014-Sep-15 01:31N 35°49' E 014°52'0 0.0
2014-Sep-14 20:07N 35°49' E 014°52'0 0.0
2014-Sep-14 19:31N 35°49' E 014°52'0 0.0
2014-Sep-14 18:10N 35°49' E 014°52'0 0.0
2014-Sep-14 17:22N 35°49' E 014°53'0 0.0
2014-Sep-14 16:28N 35°49' E 014°52'0 0.0
2014-Sep-14 15:31N 35°49' E 014°52'0 0.0
2014-Sep-14 14:31N 35°49' E 014°52'0 0.0
2014-Sep-14 13:22N 35°49' E 014°52'0 0.0
2014-Sep-14 12:28N 35°49' E 014°52'0 0.0
2014-Sep-14 11:31N 35°49' E 014°52'0 0.0
2014-Sep-14 10:31N 35°49' E 014°52'0 0.0
2014-Sep-14 09:28N 35°49' E 014°52'0 0.0
2014-Sep-14 08:31N 35°49' E 014°52'0 0.0
2014-Sep-14 07:31N 35°49' E 014°52'0 0.0
2014-Sep-14 06:28N 35°49' E 014°52'0 0.0
2014-Sep-14 05:22N 35°49' E 014°52'0 0.0
2014-Sep-14 04:31N 35°49' E 014°52'0 0.0
2014-Sep-14 02:31N 35°49' E 014°52'0 0.0
2014-Sep-14 01:31N 35°49' E 014°52'0 0.0
2014-Sep-13 21:19N 35°49' E 014°52'0 0.0
2014-Sep-13 20:28N 35°49' E 014°52'0 0.0
2014-Sep-13 19:28N 35°49' E 014°52'0 0.0
2014-Sep-13 18:25N 35°49' E 014°52'0 0.0
2014-Sep-13 17:28N 35°49' E 014°52'0 0.0
2014-Sep-13 15:31N 35°49' E 014°52'  
2014-Sep-09 18:09N 36°01' E 015°12'1013.6
2014-Sep-09 17:27N 35°53' E 015°05'1213.2
2014-Sep-09 16:33N 35°46' E 014°53'1413.7
2014-Sep-09 15:34N 35°48' E 014°37'3 3.3
2014-Sep-09 14:34N 35°49' E 014°33'0 0.0
2014-Sep-09 13:33N 35°49' E 014°33'0 0.0
2014-Sep-09 12:33N 35°49' E 014°33'0 0.0
2014-Sep-09 11:33N 35°49' E 014°33'0 0.0
2014-Sep-09 10:34N 35°49' E 014°33'0 0.0
2014-Sep-09 09:33N 35°49' E 014°33'0 0.0
2014-Sep-09 03:30N 35°49' E 014°33'0 0.0
2014-Sep-09 02:32N 35°49' E 014°33'0 0.0
2014-Sep-09 00:33N 35°49' E 014°33'0 0.0
2014-Sep-08 23:33N 35°49' E 014°33'0 0.0
2014-Sep-08 22:34N 35°49' E 014°33'0 0.0
2014-Sep-08 18:16N 35°49' E 014°33'0 0.0
2014-Sep-08 17:26N 35°49' E 014°33'0 0.0
2014-Sep-08 16:33N 35°49' E 014°33'0 0.0
2014-Sep-08 14:29N 35°49' E 014°33'0 0.0
2014-Sep-08 13:34N 35°49' E 014°33'0 0.0
2014-Sep-08 12:34N 35°49' E 014°33'0 0.0
2014-Sep-08 11:33N 35°49' E 014°33'0 0.0
2014-Sep-08 10:33N 35°49' E 014°33'15 1.5
2014-Sep-08 00:33N 35°48' E 014°52'0 0.0
2014-Sep-07 23:29N 35°48' E 014°52'0 0.0
2014-Sep-07 21:11N 35°48' E 014°52'0 0.0
2014-Sep-07 20:29N 35°48' E 014°52'0 0.0
2014-Sep-07 19:32N 35°48' E 014°52'0 0.0
2014-Sep-07 18:05N 35°48' E 014°52'0 0.0
2014-Sep-07 17:32N 35°48' E 014°52'0 0.0
2014-Sep-07 16:32N 35°48' E 014°52'0 0.0
2014-Sep-07 15:32N 35°48' E 014°52'0 0.0
2014-Sep-07 14:29N 35°48' E 014°52'0 0.0
2014-Sep-07 13:30N 35°48' E 014°52'0 0.0
2014-Sep-07 12:29N 35°48' E 014°52'0 0.0
2014-Sep-07 11:29N 35°48' E 014°52'0 0.0
2014-Sep-07 10:26N 35°48' E 014°52'0 0.0
2014-Sep-07 09:32N 35°48' E 014°52'  
Track history (hours):
 
Tides and Currents Weather Stations Pressure Air Temp Water Temp Dewpoint Dewpoint Depression Visibility Wind Speed Wind Dir Waves Ship Positions

Fs Philippine

Last reported at 2014-Sep-16 20:25 UTC. Time now 2014-Sep-16 21:25 UTC.
Position N 35°49' E 014°52'.

Length 139 m; draft 6.4 m.

Type: Ship (hazmat cat B). MMSI: 228320800.

Date/timePositionNaut miles runAvg speedWind from/ knotsBaromVisibWave heightAir tempDewpointWater temp
2014-Sep-16 20:25N 35°49' E 014°52'0 0.0
2014-Sep-16 18:07N 35°49' E 014°52'0 0.0
2014-Sep-16 17:22N 35°49' E 014°52'0 0.0
2014-Sep-16 06:28N 35°49' E 014°52'0 0.0
2014-Sep-16 04:28N 35°49' E 014°52'0 0.0
2014-Sep-16 03:28N 35°49' E 014°52'0 0.1
2014-Sep-16 02:31N 35°49' E 014°52'0 0.0
2014-Sep-16 01:22N 35°49' E 014°52'0 0.0
2014-Sep-15 23:25N 35°49' E 014°52'0 0.0
2014-Sep-15 22:31N 35°49' E 014°52'0 0.0
2014-Sep-15 21:13N 35°49' E 014°52'0 0.0
2014-Sep-15 20:31N 35°49' E 014°52'0 0.0
2014-Sep-15 19:28N 35°49' E 014°52'0 0.0
2014-Sep-15 18:31N 35°49' E 014°52'0 0.0
2014-Sep-15 16:31N 35°49' E 014°52'0 0.0
2014-Sep-15 15:31N 35°49' E 014°52'0 0.0
2014-Sep-15 14:31N 35°49' E 014°52'0 0.0
2014-Sep-15 13:31N 35°49' E 014°52'0 0.0
2014-Sep-15 12:31N 35°49' E 014°52'0 0.0
2014-Sep-15 11:31N 35°49' E 014°52'0 0.1
2014-Sep-15 10:31N 35°49' E 014°52'0 0.1
2014-Sep-15 09:31N 35°49' E 014°52'0 0.0
2014-Sep-15 08:31N 35°49' E 014°52'0 0.0
2014-Sep-15 07:25N 35°49' E 014°52'0 0.0
2014-Sep-15 06:28N 35°49' E 014°52'0 0.0
2014-Sep-15 05:19N 35°49' E 014°52'0 0.0
2014-Sep-15 04:31N 35°49' E 014°52'0 0.0
2014-Sep-15 03:31N 35°49' E 014°52'0 0.0
2014-Sep-15 02:31N 35°49' E 014°52'0 0.0
2014-Sep-15 01:31N 35°49' E 014°52'0 0.0
2014-Sep-14 20:07N 35°49' E 014°52'0 0.0
2014-Sep-14 19:31N 35°49' E 014°52'0 0.0
2014-Sep-14 18:10N 35°49' E 014°52'0 0.0
2014-Sep-14 17:22N 35°49' E 014°53'0 0.0
2014-Sep-14 16:28N 35°49' E 014°52'0 0.0
2014-Sep-14 15:31N 35°49' E 014°52'0 0.0
2014-Sep-14 14:31N 35°49' E 014°52'0 0.0
2014-Sep-14 13:22N 35°49' E 014°52'0 0.0
2014-Sep-14 12:28N 35°49' E 014°52'0 0.0
2014-Sep-14 11:31N 35°49' E 014°52'0 0.0
2014-Sep-14 10:31N 35°49' E 014°52'0 0.0
2014-Sep-14 09:28N 35°49' E 014°52'0 0.0
2014-Sep-14 08:31N 35°49' E 014°52'0 0.0
2014-Sep-14 07:31N 35°49' E 014°52'0 0.0
2014-Sep-14 06:28N 35°49' E 014°52'0 0.0
2014-Sep-14 05:22N 35°49' E 014°52'0 0.0
2014-Sep-14 04:31N 35°49' E 014°52'0 0.0
2014-Sep-14 02:31N 35°49' E 014°52'0 0.0
2014-Sep-14 01:31N 35°49' E 014°52'0 0.0
2014-Sep-13 21:19N 35°49' E 014°52'0 0.0
2014-Sep-13 20:28N 35°49' E 014°52'0 0.0
2014-Sep-13 19:28N 35°49' E 014°52'0 0.0
2014-Sep-13 18:25N 35°49' E 014°52'0 0.0
2014-Sep-13 17:28N 35°49' E 014°52'0 0.0
2014-Sep-13 15:31N 35°49' E 014°52'  
2014-Sep-09 18:09N 36°01' E 015°12'1013.6
2014-Sep-09 17:27N 35°53' E 015°05'1213.2
2014-Sep-09 16:33N 35°46' E 014°53'1413.7
2014-Sep-09 15:34N 35°48' E 014°37'3 3.3
2014-Sep-09 14:34N 35°49' E 014°33'0 0.0
2014-Sep-09 13:33N 35°49' E 014°33'0 0.0
2014-Sep-09 12:33N 35°49' E 014°33'0 0.0
2014-Sep-09 11:33N 35°49' E 014°33'0 0.0
2014-Sep-09 10:34N 35°49' E 014°33'0 0.0
2014-Sep-09 09:33N 35°49' E 014°33'0 0.0
2014-Sep-09 03:30N 35°49' E 014°33'0 0.0
2014-Sep-09 02:32N 35°49' E 014°33'0 0.0
2014-Sep-09 00:33N 35°49' E 014°33'0 0.0
2014-Sep-08 23:33N 35°49' E 014°33'0 0.0
2014-Sep-08 22:34N 35°49' E 014°33'0 0.0
2014-Sep-08 18:16N 35°49' E 014°33'0 0.0
2014-Sep-08 17:26N 35°49' E 014°33'0 0.0
2014-Sep-08 16:33N 35°49' E 014°33'0 0.0
2014-Sep-08 14:29N 35°49' E 014°33'0 0.0
2014-Sep-08 13:34N 35°49' E 014°33'0 0.0
2014-Sep-08 12:34N 35°49' E 014°33'0 0.0
2014-Sep-08 11:33N 35°49' E 014°33'0 0.0
2014-Sep-08 10:33N 35°49' E 014°33'15 1.5
2014-Sep-08 00:33N 35°48' E 014°52'0 0.0
2014-Sep-07 23:29N 35°48' E 014°52'0 0.0
2014-Sep-07 21:11N 35°48' E 014°52'0 0.0
2014-Sep-07 20:29N 35°48' E 014°52'0 0.0
2014-Sep-07 19:32N 35°48' E 014°52'0 0.0
2014-Sep-07 18:05N 35°48' E 014°52'0 0.0
2014-Sep-07 17:32N 35°48' E 014°52'0 0.0
2014-Sep-07 16:32N 35°48' E 014°52'0 0.0
2014-Sep-07 15:32N 35°48' E 014°52'0 0.0
2014-Sep-07 14:29N 35°48' E 014°52'0 0.0
2014-Sep-07 13:30N 35°48' E 014°52'0 0.0
2014-Sep-07 12:29N 35°48' E 014°52'0 0.0
2014-Sep-07 11:29N 35°48' E 014°52'0 0.0
2014-Sep-07 10:26N 35°48' E 014°52'0 0.0
2014-Sep-07 09:32N 35°48' E 014°52'  

Dump ship's entire track history